createdAt,value
2023-03-05T00:01:15.505Z,15.00
2023-03-05T00:03:42.620Z,12.30
2023-03-05T00:06:09.860Z,11.17
2023-03-05T00:08:37.221Z,12.70
2023-03-05T00:11:10.350Z,11.80
2023-03-05T00:13:38.550Z,12.03
2023-03-05T00:16:08.785Z,11.70
2023-03-05T00:18:35.818Z,11.77
2023-03-05T00:21:03.321Z,12.40
2023-03-05T00:23:30.446Z,10.50
2023-03-05T00:26:00.855Z,11.90
2023-03-05T00:28:27.809Z,13.10
2023-03-05T00:30:54.769Z,11.47
2023-03-05T00:33:22.131Z,12.37
2023-03-05T00:35:49.247Z,13.53
2023-03-05T00:38:16.674Z,11.90
2023-03-05T00:40:43.570Z,13.50
2023-03-05T00:43:11.142Z,13.03
2023-03-05T00:45:39.117Z,14.50
2023-03-05T00:48:06.316Z,13.70
2023-03-05T00:50:33.935Z,13.93
2023-03-05T00:53:03.893Z,12.00
2023-03-05T00:55:36.670Z,12.23
2023-03-05T00:58:06.690Z,11.83
2023-03-05T01:00:37.127Z,12.23
2023-03-05T01:03:04.772Z,11.83
2023-03-05T01:05:32.105Z,11.77
2023-03-05T01:07:59.197Z,12.20
2023-03-05T01:10:32.327Z,11.77
2023-03-05T01:12:59.184Z,10.97
2023-03-05T01:15:26.409Z,11.17
2023-03-05T01:17:53.556Z,11.60
2023-03-05T01:20:22.328Z,11.97
2023-03-05T01:22:49.346Z,15.67
2023-03-05T01:25:17.475Z,13.40
2023-03-05T01:27:44.927Z,12.93
2023-03-05T01:30:14.100Z,12.87
2023-03-05T01:32:41.316Z,12.70
2023-03-05T01:35:09.058Z,16.37
2023-03-05T01:37:35.920Z,16.10
2023-03-05T01:40:03.127Z,20.40
2023-03-05T01:42:30.431Z,22.73
2023-03-05T01:45:03.607Z,18.33
2023-03-05T01:47:30.821Z,15.97
2023-03-05T01:49:57.884Z,22.90
2023-03-05T01:52:27.679Z,16.17
2023-03-05T01:54:59.753Z,14.47
2023-03-05T01:57:40.268Z,14.27
2023-03-05T02:00:13.994Z,13.90
2023-03-05T02:02:43.565Z,16.50
2023-03-05T02:05:27.209Z,16.97
2023-03-05T02:08:03.969Z,14.67
2023-03-05T02:10:34.190Z,13.63
2023-03-05T02:13:04.589Z,14.77
2023-03-05T02:15:33.622Z,14.10
2023-03-05T02:18:01.671Z,12.00
2023-03-05T02:20:31.552Z,12.13
2023-03-05T02:22:58.573Z,11.77
2023-03-05T02:25:27.956Z,13.30
2023-03-05T02:28:00.477Z,13.77
2023-03-05T02:30:28.852Z,12.80
2023-03-05T02:32:55.856Z,12.53
2023-03-05T02:35:23.800Z,12.03
2023-03-05T02:37:51.427Z,12.73
2023-03-05T02:40:18.666Z,11.83
2023-03-05T02:42:46.723Z,11.60
2023-03-05T02:45:15.550Z,10.87
2023-03-05T02:47:42.519Z,11.80
2023-03-05T02:50:11.821Z,11.00
2023-03-05T02:52:39.515Z,10.80
2023-03-05T02:55:11.877Z,11.13
2023-03-05T02:57:40.399Z,9.73
2023-03-05T03:00:08.565Z,10.90
2023-03-05T03:02:35.681Z,10.33
2023-03-05T03:05:02.591Z,10.60
2023-03-05T03:07:30.637Z,9.60
2023-03-05T03:09:57.606Z,10.10
2023-03-05T03:12:24.456Z,10.27
2023-03-05T03:14:51.827Z,10.03
2023-03-05T03:17:19.176Z,9.70
2023-03-05T03:19:46.562Z,9.83
2023-03-05T03:22:15.574Z,10.90
2023-03-05T03:24:44.082Z,9.83
2023-03-05T03:27:11.065Z,10.40
2023-03-05T03:29:38.504Z,10.20
2023-03-05T03:32:05.795Z,10.13
2023-03-05T03:34:32.679Z,9.80
2023-03-05T03:36:59.521Z,9.70
2023-03-05T03:39:26.578Z,9.77
2023-03-05T03:41:53.761Z,11.27
2023-03-05T03:44:21.775Z,10.90
2023-03-05T03:46:50.603Z,11.50
2023-03-05T03:49:25.974Z,11.63
2023-03-05T03:51:58.308Z,10.90
2023-03-05T03:54:25.669Z,11.57
2023-03-05T03:56:52.915Z,13.47
2023-03-05T03:59:19.814Z,13.10
2023-03-05T04:01:47.985Z,10.53
2023-03-05T04:04:15.543Z,11.23
2023-03-05T04:06:42.515Z,11.77
2023-03-05T04:09:09.722Z,15.00
2023-03-05T04:11:37.851Z,18.83
2023-03-05T04:14:05.945Z,17.33
2023-03-05T04:16:33.219Z,15.80
2023-03-05T04:19:00.222Z,14.17
2023-03-05T04:21:27.337Z,12.53
2023-03-05T04:23:54.169Z,12.13
2023-03-05T04:26:21.111Z,13.00
2023-03-05T04:28:48.642Z,12.87
2023-03-05T04:31:15.847Z,12.77
2023-03-05T04:33:42.972Z,12.17
2023-03-05T04:36:10.051Z,12.43
2023-03-05T04:38:36.992Z,12.27
2023-03-05T04:41:04.222Z,12.63
2023-03-05T04:43:31.345Z,12.50
2023-03-05T04:45:58.762Z,12.77
2023-03-05T04:48:25.792Z,13.93
2023-03-05T04:50:52.782Z,11.73
2023-03-05T04:53:19.667Z,12.97
2023-03-05T04:55:46.600Z,11.70
2023-03-05T04:58:13.464Z,12.10
2023-03-05T05:00:40.393Z,13.03
2023-03-05T05:03:07.615Z,13.53
2023-03-05T05:05:34.555Z,12.93
2023-03-05T05:08:01.571Z,13.03
2023-03-05T05:10:28.560Z,13.70
2023-03-05T05:12:55.477Z,13.37
2023-03-05T05:15:22.507Z,12.97
2023-03-05T05:17:49.502Z,13.03
2023-03-05T05:20:17.385Z,15.53
2023-03-05T05:22:44.539Z,14.20
2023-03-05T05:25:11.999Z,12.63
2023-03-05T05:27:40.939Z,13.67
2023-03-05T05:30:08.661Z,14.33
2023-03-05T05:32:35.930Z,13.10
2023-03-05T05:35:04.129Z,12.60
2023-03-05T05:37:31.133Z,12.40
2023-03-05T05:39:58.278Z,12.23
2023-03-05T05:42:25.486Z,11.93
2023-03-05T05:44:53.029Z,12.37
2023-03-05T05:47:20.129Z,12.30
2023-03-05T05:49:47.041Z,12.37
2023-03-05T05:52:14.331Z,11.53
2023-03-05T05:54:41.229Z,12.80
2023-03-05T05:57:08.491Z,12.43
2023-03-05T05:59:35.558Z,12.43
2023-03-05T06:02:02.510Z,12.07
2023-03-05T06:04:29.609Z,11.97
2023-03-05T06:06:56.729Z,11.40
2023-03-05T06:09:23.676Z,11.07
2023-03-05T06:11:50.663Z,10.57
2023-03-05T06:14:17.687Z,10.30
2023-03-05T06:16:44.979Z,10.40
2023-03-05T06:19:13.800Z,10.33
2023-03-05T06:21:41.027Z,10.90
2023-03-05T06:24:08.116Z,13.50
2023-03-05T06:26:35.094Z,14.07
2023-03-05T06:29:02.582Z,12.23
2023-03-05T06:31:30.422Z,12.67
2023-03-05T06:34:03.823Z,13.30
2023-03-05T06:36:31.447Z,12.70
2023-03-05T06:38:59.017Z,12.03
2023-03-05T06:41:28.849Z,12.60
2023-03-05T06:43:56.192Z,10.93
2023-03-05T06:46:29.188Z,10.97
2023-03-05T06:48:57.834Z,10.67
2023-03-05T06:51:30.795Z,11.30
2023-03-05T06:54:02.800Z,10.17
2023-03-05T06:56:30.087Z,11.47
2023-03-05T06:58:57.402Z,10.80
2023-03-05T07:01:24.474Z,11.43
2023-03-05T07:03:53.728Z,11.37
2023-03-05T07:06:21.664Z,13.20
2023-03-05T07:08:49.264Z,13.33
2023-03-05T07:11:19.573Z,14.40
2023-03-05T07:13:50.166Z,14.20
2023-03-05T07:16:26.439Z,14.13
2023-03-05T07:18:54.212Z,14.60
2023-03-05T07:21:27.370Z,15.47
2023-03-05T07:23:55.704Z,18.47
2023-03-05T07:26:23.298Z,17.00
2023-03-05T07:28:50.584Z,16.50
2023-03-05T07:31:30.204Z,12.30
2023-03-05T07:34:03.195Z,12.53
2023-03-05T07:36:30.926Z,12.50
2023-03-05T07:38:57.930Z,12.57
2023-03-05T07:41:24.995Z,11.80
2023-03-05T07:43:54.095Z,12.90
2023-03-05T07:46:25.060Z,14.30
2023-03-05T07:48:52.722Z,13.53
2023-03-05T07:51:20.448Z,15.70
2023-03-05T07:53:49.485Z,15.43
2023-03-05T07:56:29.060Z,15.43
2023-03-05T07:58:56.056Z,19.13
2023-03-05T08:01:23.333Z,18.00
2023-03-05T08:03:50.403Z,14.20
2023-03-05T08:06:17.601Z,14.13
2023-03-05T08:08:45.003Z,14.83
2023-03-05T08:11:14.429Z,16.37
2023-03-05T08:13:42.471Z,16.57
2023-03-05T08:16:14.133Z,18.60
2023-03-05T08:18:44.804Z,18.23
2023-03-05T08:21:20.051Z,16.90
2023-03-05T08:23:47.322Z,16.60
2023-03-05T08:26:18.896Z,17.03
2023-03-05T08:28:46.112Z,16.27
2023-03-05T08:31:14.736Z,16.67
2023-03-05T08:33:43.106Z,17.40
2023-03-05T08:36:10.724Z,17.70
2023-03-05T08:38:37.912Z,17.87
2023-03-05T08:41:05.262Z,17.80
2023-03-05T08:43:35.417Z,14.80
2023-03-05T08:46:02.985Z,15.47
2023-03-05T08:48:30.449Z,14.37
2023-03-05T08:51:00.830Z,13.87
2023-03-05T08:53:27.688Z,13.23
2023-03-05T08:55:59.368Z,13.47
2023-03-05T08:58:26.899Z,12.30
2023-03-05T09:00:53.843Z,11.80
2023-03-05T09:03:20.929Z,11.57
2023-03-05T09:05:48.068Z,12.43
2023-03-05T09:08:15.445Z,12.33
2023-03-05T09:10:46.333Z,11.83
2023-03-05T09:13:13.337Z,11.30
2023-03-05T09:15:40.318Z,11.63
2023-03-05T09:18:09.105Z,13.10
2023-03-05T09:20:36.871Z,14.20
2023-03-05T09:23:04.305Z,13.13
2023-03-05T09:25:31.498Z,13.70
2023-03-05T09:27:58.449Z,13.80
2023-03-05T09:30:27.787Z,13.27
2023-03-05T09:32:55.110Z,13.00
2023-03-05T09:35:22.466Z,13.40
2023-03-05T09:37:51.438Z,13.50
2023-03-05T09:40:27.739Z,14.20
2023-03-05T09:43:24.589Z,14.33
2023-03-05T09:46:01.604Z,14.80
2023-03-05T09:48:44.556Z,13.73
2023-03-05T09:51:18.067Z,12.17
2023-03-05T09:54:01.684Z,13.40
2023-03-05T09:56:43.462Z,14.30
2023-03-05T09:59:36.036Z,15.27
2023-03-05T10:02:20.280Z,13.90
2023-03-05T10:04:58.574Z,13.77
2023-03-05T10:07:36.734Z,14.17
2023-03-05T10:10:33.196Z,12.30
2023-03-05T10:13:11.441Z,11.93
2023-03-05T10:15:51.956Z,11.77
2023-03-05T10:18:28.120Z,14.70
2023-03-05T10:21:22.239Z,14.20
2023-03-05T10:24:17.863Z,14.50
2023-03-05T10:26:53.885Z,13.30
2023-03-05T10:29:48.170Z,14.27
2023-03-05T10:32:21.150Z,11.40
2023-03-05T10:35:11.376Z,11.77
2023-03-05T10:38:08.766Z,13.00
2023-03-05T10:41:19.924Z,15.40
2023-03-05T10:43:51.635Z,14.23
2023-03-05T10:46:22.568Z,14.80
2023-03-05T10:49:21.127Z,15.50
2023-03-05T10:51:53.484Z,13.97
2023-03-05T10:54:38.783Z,14.03
2023-03-05T10:57:15.796Z,11.00
2023-03-05T10:59:48.968Z,9.40
2023-03-05T11:02:16.264Z,9.93
2023-03-05T11:04:44.273Z,10.50
2023-03-05T11:07:17.187Z,10.60
2023-03-05T11:10:04.606Z,10.63
2023-03-05T11:12:39.743Z,11.77
2023-03-05T11:15:26.343Z,11.77
2023-03-05T11:18:17.883Z,11.47
2023-03-05T11:20:45.495Z,10.73
2023-03-05T11:23:18.595Z,10.97
2023-03-05T11:26:13.059Z,11.53
2023-03-05T11:28:52.299Z,10.90
2023-03-05T11:31:19.273Z,11.00
2023-03-05T11:34:04.941Z,11.33
2023-03-05T11:36:38.838Z,12.83
2023-03-05T11:39:17.516Z,13.10
2023-03-05T11:41:56.429Z,12.97
2023-03-05T11:44:35.230Z,11.43
2023-03-05T11:47:40.474Z,15.50
2023-03-05T11:50:07.548Z,14.23
2023-03-05T11:52:45.193Z,14.17
2023-03-05T11:55:18.723Z,13.53
2023-03-05T11:57:53.644Z,14.40
2023-03-05T12:00:29.889Z,12.97
2023-03-05T12:03:00.820Z,13.50
2023-03-05T12:05:30.183Z,14.37
2023-03-05T12:08:01.930Z,14.13
2023-03-05T12:10:29.406Z,12.50
2023-03-05T12:13:04.872Z,12.57
2023-03-05T12:15:41.192Z,11.07
2023-03-05T12:18:35.338Z,10.90
2023-03-05T12:21:21.859Z,13.77
2023-03-05T12:23:53.588Z,14.13
2023-03-05T12:27:02.353Z,13.80
2023-03-05T12:29:46.761Z,14.77
2023-03-05T12:32:25.728Z,13.97
2023-03-05T12:35:18.492Z,14.57
2023-03-05T12:37:45.456Z,15.27
2023-03-05T12:40:28.227Z,14.13
2023-03-05T12:43:06.377Z,15.23
2023-03-05T12:45:41.324Z,15.43
2023-03-05T12:48:12.674Z,15.13
2023-03-05T12:50:39.682Z,15.37
2023-03-05T12:53:14.289Z,17.60
2023-03-05T12:55:46.039Z,14.27
2023-03-05T12:58:43.312Z,13.10
2023-03-05T13:01:28.803Z,13.93
2023-03-05T13:04:11.817Z,14.80
2023-03-05T13:06:39.689Z,14.43
2023-03-05T13:09:25.025Z,15.10
2023-03-05T13:11:54.304Z,16.07
2023-03-05T13:14:33.336Z,15.13
2023-03-05T13:17:01.677Z,14.73
2023-03-05T13:19:32.988Z,14.73
2023-03-05T13:22:02.836Z,13.60
2023-03-05T13:24:30.755Z,15.53
2023-03-05T13:26:57.744Z,15.23
2023-03-05T13:29:30.983Z,12.60
2023-03-05T13:32:04.373Z,12.43
2023-03-05T13:34:47.169Z,14.47
2023-03-05T13:37:24.208Z,14.70
2023-03-05T13:40:07.457Z,14.40
2023-03-05T13:42:36.314Z,12.77
2023-03-05T13:45:20.972Z,17.47
2023-03-05T13:47:58.213Z,16.63
2023-03-05T13:50:37.318Z,15.27
2023-03-05T13:53:19.279Z,14.93
2023-03-05T13:55:50.748Z,13.87
2023-03-05T13:58:44.456Z,15.00
2023-03-05T14:01:18.475Z,13.83
2023-03-05T14:03:50.455Z,13.40
2023-03-05T14:06:21.700Z,14.53
2023-03-05T14:08:54.578Z,15.77
2023-03-05T14:11:21.625Z,13.43
2023-03-05T14:13:49.395Z,14.67
2023-03-05T14:16:26.482Z,13.70
2023-03-05T14:19:02.309Z,13.40
2023-03-05T14:21:50.510Z,13.07
2023-03-05T14:24:28.688Z,13.50
2023-03-05T14:27:03.394Z,12.27
2023-03-05T14:29:32.793Z,12.13
2023-03-05T14:32:02.967Z,11.77
2023-03-05T14:34:35.070Z,11.23
2023-03-05T14:37:05.472Z,12.67
2023-03-05T14:39:35.217Z,11.10
2023-03-05T14:42:24.357Z,11.83
2023-03-05T14:44:51.524Z,11.83
2023-03-05T14:47:18.525Z,12.63
2023-03-05T14:49:45.343Z,13.93
2023-03-05T14:52:16.980Z,12.90
2023-03-05T14:54:44.755Z,13.13
2023-03-05T14:57:24.484Z,13.03
2023-03-05T14:59:51.371Z,13.43
2023-03-05T15:02:21.910Z,12.40
2023-03-05T15:04:49.309Z,12.43
2023-03-05T15:07:32.367Z,15.03
2023-03-05T15:10:02.129Z,13.90
2023-03-05T15:12:30.590Z,12.33
2023-03-05T15:14:57.741Z,12.47
2023-03-05T15:17:35.284Z,12.40
2023-03-05T15:20:08.105Z,11.60
2023-03-05T15:22:35.162Z,12.20
2023-03-05T15:25:02.487Z,12.30
2023-03-05T15:27:30.206Z,12.37
2023-03-05T15:29:57.277Z,15.23
2023-03-05T15:32:27.514Z,10.77
2023-03-05T15:34:55.038Z,9.80
2023-03-05T15:37:22.306Z,9.20
2023-03-05T15:39:50.028Z,10.10
2023-03-05T15:42:17.248Z,10.37
2023-03-05T15:44:44.272Z,12.70
2023-03-05T15:47:11.524Z,11.80
2023-03-05T15:49:38.952Z,12.87
2023-03-05T15:52:05.887Z,11.87
2023-03-05T15:54:32.874Z,10.53
2023-03-05T15:56:59.817Z,9.13
2023-03-05T15:59:27.871Z,8.70
2023-03-05T16:01:54.897Z,9.57
2023-03-05T16:04:21.932Z,9.43
2023-03-05T16:06:50.520Z,9.80
2023-03-05T16:09:20.771Z,11.03
2023-03-05T16:11:51.671Z,11.60
2023-03-05T16:14:24.438Z,10.80
2023-03-05T16:16:55.285Z,11.30
2023-03-05T16:19:24.482Z,12.00
2023-03-05T16:21:51.418Z,11.77
2023-03-05T16:24:18.513Z,13.37
2023-03-05T16:26:45.432Z,13.20
2023-03-05T16:29:12.726Z,10.17
2023-03-05T16:31:41.656Z,11.07
2023-03-05T16:34:09.594Z,10.13
2023-03-05T16:36:36.644Z,10.50
2023-03-05T16:39:05.283Z,11.53
2023-03-05T16:41:32.913Z,11.67
2023-03-05T16:44:00.320Z,11.50
2023-03-05T16:46:29.625Z,12.60
2023-03-05T16:48:58.036Z,13.33
2023-03-05T16:51:26.411Z,14.77
2023-03-05T16:53:55.612Z,16.73
2023-03-05T16:56:23.070Z,17.47
2023-03-05T16:58:53.210Z,13.70
2023-03-05T17:01:21.206Z,14.03
2023-03-05T17:03:48.859Z,12.80
2023-03-05T17:06:18.772Z,12.13
2023-03-05T17:08:47.511Z,10.60
2023-03-05T17:11:14.871Z,9.23
2023-03-05T17:13:42.522Z,10.57
2023-03-05T17:16:11.993Z,10.77
2023-03-05T17:18:39.110Z,12.77
2023-03-05T17:21:07.747Z,10.53
2023-03-05T17:23:36.525Z,11.20
2023-03-05T17:26:09.081Z,10.23
2023-03-05T17:28:36.116Z,10.70
2023-03-05T17:31:04.094Z,13.57
2023-03-05T17:33:35.745Z,14.10
2023-03-05T17:36:03.299Z,13.80
2023-03-05T17:38:31.535Z,11.97
2023-03-05T17:40:58.641Z,13.13
2023-03-05T17:43:25.741Z,13.23
2023-03-05T17:45:52.932Z,14.07
2023-03-05T17:48:19.998Z,13.50
2023-03-05T17:50:47.007Z,14.17
2023-03-05T17:53:14.156Z,13.07
2023-03-05T17:55:41.074Z,14.30
2023-03-05T17:58:08.368Z,13.53
2023-03-05T18:00:36.117Z,14.23
2023-03-05T18:03:03.085Z,14.50
2023-03-05T18:05:30.648Z,14.13
2023-03-05T18:07:57.963Z,15.30
2023-03-05T18:10:26.486Z,11.87
2023-03-05T18:12:54.461Z,13.30
2023-03-05T18:15:23.177Z,11.53
2023-03-05T18:17:50.805Z,12.00
2023-03-05T18:20:26.586Z,11.37
2023-03-05T18:22:54.346Z,9.43
2023-03-05T18:25:22.208Z,9.67
2023-03-05T18:27:49.282Z,9.70
2023-03-05T18:30:16.273Z,10.10
2023-03-05T18:32:44.358Z,9.63
2023-03-05T18:35:12.231Z,10.37
2023-03-05T18:37:39.976Z,9.67
2023-03-05T18:40:09.759Z,9.10
2023-03-05T18:42:37.577Z,8.93
2023-03-05T18:45:06.863Z,10.10
2023-03-05T18:47:34.092Z,10.60
2023-03-05T18:50:01.267Z,9.97
2023-03-05T18:52:29.798Z,9.40
2023-03-05T18:54:59.860Z,10.90
2023-03-05T18:57:27.139Z,9.67
2023-03-05T18:59:54.259Z,11.07
2023-03-05T19:02:21.199Z,10.87
2023-03-05T19:04:48.241Z,9.63
2023-03-05T19:07:15.394Z,11.03
2023-03-05T19:09:59.706Z,9.33
2023-03-05T19:12:35.263Z,9.73
2023-03-05T19:15:03.607Z,8.07
2023-03-05T19:17:32.418Z,8.80
2023-03-05T19:19:59.988Z,9.00
2023-03-05T19:22:28.602Z,9.33
2023-03-05T19:24:56.086Z,8.23
2023-03-05T19:27:24.947Z,9.20
2023-03-05T19:29:53.808Z,8.67
2023-03-05T19:32:24.288Z,9.73
2023-03-05T19:34:55.606Z,7.67
2023-03-05T19:37:22.698Z,7.87
2023-03-05T19:39:49.797Z,8.73
2023-03-05T19:42:16.815Z,8.37
2023-03-05T19:44:43.755Z,8.77
2023-03-05T19:47:11.093Z,8.60
2023-03-05T19:49:38.105Z,9.73
2023-03-05T19:52:06.346Z,8.33
2023-03-05T19:54:33.588Z,9.17
2023-03-05T19:57:00.591Z,8.93
2023-03-05T19:59:27.626Z,8.17
2023-03-05T20:01:54.852Z,9.13
2023-03-05T20:04:24.235Z,10.33
2023-03-05T20:06:51.201Z,8.87
2023-03-05T20:09:18.160Z,9.80
2023-03-05T20:11:46.005Z,10.67
2023-03-05T20:14:14.772Z,11.00
2023-03-05T20:16:43.469Z,9.27
2023-03-05T20:19:16.860Z,8.53
2023-03-05T20:21:45.542Z,9.83
2023-03-05T20:24:15.124Z,9.17
2023-03-05T20:26:44.093Z,8.80
2023-03-05T20:29:12.094Z,8.73
2023-03-05T20:31:40.177Z,8.67
2023-03-05T20:34:10.007Z,9.33
2023-03-05T20:36:37.166Z,9.33
2023-03-05T20:39:07.492Z,8.90
2023-03-05T20:41:37.705Z,9.23
2023-03-05T20:44:06.256Z,9.07
2023-03-05T20:46:36.229Z,9.50
2023-03-05T20:49:21.615Z,9.03
2023-03-05T20:51:50.875Z,9.63
2023-03-05T20:54:18.708Z,8.83
2023-03-05T20:56:45.919Z,9.00
2023-03-05T20:59:13.151Z,9.40
2023-03-05T21:01:41.029Z,9.33
2023-03-05T21:04:09.016Z,8.73
2023-03-05T21:06:36.960Z,10.47
2023-03-05T21:09:04.222Z,13.03
2023-03-05T21:11:32.127Z,12.27
2023-03-05T21:13:59.453Z,11.80
2023-03-05T21:16:28.136Z,11.40
2023-03-05T21:18:57.397Z,14.40
2023-03-05T21:21:24.918Z,11.93
2023-03-05T21:23:52.320Z,12.40
2023-03-05T21:26:19.382Z,12.90
2023-03-05T21:28:46.352Z,13.17
2023-03-05T21:31:21.396Z,11.67
2023-03-05T21:33:49.494Z,13.57
2023-03-05T21:36:19.386Z,14.20
2023-03-05T21:38:50.718Z,14.13
2023-03-05T21:41:20.371Z,13.63
2023-03-05T21:43:47.276Z,16.47
2023-03-05T21:46:14.448Z,17.80
2023-03-05T21:48:41.413Z,14.80
2023-03-05T21:51:11.564Z,21.67
2023-03-05T21:53:38.519Z,16.37
2023-03-05T21:56:12.401Z,13.67
2023-03-05T21:58:39.473Z,13.73
2023-03-05T22:01:06.433Z,12.13
2023-03-05T22:03:33.418Z,11.67
2023-03-05T22:06:00.414Z,11.60
2023-03-05T22:08:29.969Z,12.90
2023-03-05T22:10:57.035Z,11.80
2023-03-05T22:13:23.984Z,10.40
2023-03-05T22:15:53.486Z,13.27
2023-03-05T22:18:23.414Z,17.97
2023-03-05T22:20:50.871Z,21.30
2023-03-05T22:23:19.081Z,14.37
2023-03-05T22:25:46.034Z,13.00
2023-03-05T22:28:13.760Z,14.83
2023-03-05T22:30:45.238Z,16.50
2023-03-05T22:33:12.866Z,17.03
2023-03-05T22:35:41.260Z,16.13
2023-03-05T22:38:10.072Z,14.20
2023-03-05T22:40:41.524Z,14.13
2023-03-05T22:43:08.597Z,13.87
2023-03-05T22:45:35.579Z,14.13
2023-03-05T22:48:02.795Z,12.63
2023-03-05T22:50:29.862Z,13.50
2023-03-05T22:52:56.986Z,13.17
2023-03-05T22:55:24.016Z,13.63
2023-03-05T22:57:51.155Z,12.80
2023-03-05T23:00:27.018Z,12.13
2023-03-05T23:02:54.293Z,12.73
2023-03-05T23:05:21.496Z,13.37
2023-03-05T23:07:49.512Z,14.13
2023-03-05T23:10:20.862Z,13.93
2023-03-05T23:12:50.500Z,12.30
2023-03-05T23:15:23.473Z,12.33
2023-03-05T23:17:50.452Z,13.07
2023-03-05T23:20:20.952Z,12.10
2023-03-05T23:22:49.073Z,13.83
2023-03-05T23:25:16.614Z,12.23
2023-03-05T23:27:45.050Z,12.37
2023-03-05T23:30:31.172Z,13.97
2023-03-05T23:33:14.651Z,13.40
2023-03-05T23:36:01.939Z,13.30
2023-03-05T23:38:30.215Z,14.13
2023-03-05T23:41:01.481Z,13.43
2023-03-05T23:43:29.274Z,15.70
2023-03-05T23:45:56.988Z,14.27
2023-03-05T23:48:25.942Z,13.40
2023-03-05T23:50:53.193Z,12.93
2023-03-05T23:53:25.987Z,12.70
2023-03-05T23:55:53.825Z,11.67
2023-03-05T23:58:21.580Z,13.10
